BEL9EV EBBR-EDDM
Flight info
| Callsign | BEL9EV |
|---|---|
| Flight time | 1h 4m |
| Altitude | 39000 |
| Route | SOPOK Y863 ROPUV L607 EMGOD DCT MOVUM T109 HAREM T104 ROKIL ROKIL1B |
| Aircraft | A320/M-SDE3FGHIRWY/LB1 |
Departure
| Time | 2026-05-05 15:34 |
|---|---|
| Airport | Brussels Airport (EBBR) |
Arrival
| Time | 2026-05-05 16:38 |
|---|---|
| Airport | Munich Airport (EDDM) |
| Time | Latitude | Longitude | Altitude | Speed | Heading |
|---|---|---|---|---|---|
| 2026-05-05 15:14 | 50.90398 | 4.48990 | 117 ft | 0 kts | 335° |
| 2026-05-05 15:25 | 50.90391 | 4.48995 | 118 ft | 4 kts | 334° |
| 2026-05-05 15:26 | 50.90367 | 4.49014 | 117 ft | 4 kts | 333° |
| 2026-05-05 15:26 | 50.90343 | 4.49032 | 120 ft | 4 kts | 341° |
| 2026-05-05 15:26 | 50.90321 | 4.49037 | 122 ft | 4 kts | 50° |
| 2026-05-05 15:26 | 50.90318 | 4.49033 | 121 ft | 0 kts | 65° |
| 2026-05-05 15:29 | 50.90318 | 4.49034 | 121 ft | 1 kts | 65° |
| 2026-05-05 15:29 | 50.90338 | 4.49103 | 121 ft | 9 kts | 66° |
| 2026-05-05 15:29 | 50.90367 | 4.49208 | 122 ft | 12 kts | 65° |
| 2026-05-05 15:29 | 50.90410 | 4.49356 | 120 ft | 17 kts | 65° |
| 2026-05-05 15:30 | 50.90454 | 4.49519 | 120 ft | 14 kts | 79° |
| 2026-05-05 15:30 | 50.90404 | 4.49571 | 124 ft | 12 kts | 193° |
| 2026-05-05 15:30 | 50.90296 | 4.49528 | 126 ft | 16 kts | 195° |
| 2026-05-05 15:30 | 50.90176 | 4.49477 | 128 ft | 23 kts | 195° |
| 2026-05-05 15:31 | 50.90028 | 4.49416 | 131 ft | 21 kts | 194° |
| 2026-05-05 15:31 | 50.89900 | 4.49367 | 137 ft | 16 kts | 194° |
| 2026-05-05 15:31 | 50.89793 | 4.49322 | 143 ft | 18 kts | 194° |
| 2026-05-05 15:31 | 50.89681 | 4.49277 | 150 ft | 19 kts | 194° |
| 2026-05-05 15:32 | 50.89573 | 4.49197 | 157 ft | 15 kts | 208° |
| 2026-05-05 15:32 | 50.89490 | 4.49157 | 160 ft | 10 kts | 194° |
| 2026-05-05 15:32 | 50.89388 | 4.49118 | 165 ft | 20 kts | 194° |
| 2026-05-05 15:32 | 50.89272 | 4.49071 | 170 ft | 15 kts | 196° |
| 2026-05-05 15:33 | 50.89194 | 4.49035 | 176 ft | 9 kts | 196° |
| 2026-05-05 15:33 | 50.89140 | 4.49043 | 177 ft | 7 kts | 125° |
| 2026-05-05 15:33 | 50.89153 | 4.49117 | 176 ft | 10 kts | 70° |
| 2026-05-05 15:33 | 50.89250 | 4.49533 | 176 ft | 78 kts | 69° |
| 2026-05-05 15:34 | 50.89518 | 4.50676 | 179 ft | 141 kts | 68° |
| 2026-05-05 15:34 | 50.89850 | 4.52170 | 781 ft | 143 kts | 69° |
| 2026-05-05 15:34 | 50.90249 | 4.53599 | 1568 ft | 142 kts | 61° |
| 2026-05-05 15:34 | 50.90697 | 4.54993 | 2276 ft | 141 kts | 60° |
| 2026-05-05 15:35 | 50.91148 | 4.56368 | 2937 ft | 140 kts | 60° |
| 2026-05-05 15:35 | 50.91600 | 4.57745 | 3500 ft | 145 kts | 60° |
| 2026-05-05 15:35 | 50.92094 | 4.59252 | 3829 ft | 167 kts | 61° |
| 2026-05-05 15:35 | 50.92667 | 4.60995 | 4137 ft | 191 kts | 61° |
| 2026-05-05 15:36 | 50.93320 | 4.62982 | 4531 ft | 215 kts | 62° |
| 2026-05-05 15:36 | 50.93946 | 4.65284 | 5016 ft | 240 kts | 70° |
| 2026-05-05 15:36 | 50.94484 | 4.67919 | 5639 ft | 259 kts | 72° |
| 2026-05-05 15:36 | 50.95012 | 4.70705 | 6524 ft | 267 kts | 73° |
| 2026-05-05 15:37 | 50.95436 | 4.73595 | 7439 ft | 272 kts | 85° |
| 2026-05-05 15:37 | 50.95280 | 4.76600 | 8330 ft | 278 kts | 104° |
| 2026-05-05 15:37 | 50.94493 | 4.79371 | 9234 ft | 283 kts | 124° |
| 2026-05-05 15:37 | 50.93127 | 4.81645 | 10098 ft | 289 kts | 139° |
| 2026-05-05 15:38 | 50.91517 | 4.83754 | 10478 ft | 313 kts | 140° |
| 2026-05-05 15:38 | 50.89717 | 4.85906 | 10807 ft | 335 kts | 148° |
| 2026-05-05 15:38 | 50.87578 | 4.87516 | 11441 ft | 345 kts | 160° |
| 2026-05-05 15:38 | 50.85230 | 4.88406 | 12211 ft | 350 kts | 172° |
| 2026-05-05 15:39 | 50.82794 | 4.88800 | 13023 ft | 354 kts | 173° |
| 2026-05-05 15:39 | 50.80327 | 4.89183 | 13795 ft | 358 kts | 174° |
| 2026-05-05 15:39 | 50.77874 | 4.89567 | 14528 ft | 360 kts | 174° |
| 2026-05-05 15:39 | 50.75380 | 4.89961 | 15386 ft | 361 kts | 174° |
| 2026-05-05 15:40 | 50.72872 | 4.90356 | 16195 ft | 364 kts | 174° |
| 2026-05-05 15:40 | 50.70386 | 4.91175 | 16966 ft | 368 kts | 161° |
| 2026-05-05 15:40 | 50.68088 | 4.92983 | 17720 ft | 373 kts | 147° |
| 2026-05-05 15:40 | 50.66142 | 4.95713 | 18430 ft | 378 kts | 132° |
| 2026-05-05 15:41 | 50.64678 | 4.99183 | 19027 ft | 384 kts | 121° |
| 2026-05-05 15:41 | 50.63258 | 5.02756 | 19628 ft | 385 kts | 127° |
| 2026-05-05 15:41 | 50.61635 | 5.06116 | 20226 ft | 387 kts | 131° |
| 2026-05-05 15:41 | 50.59925 | 5.09326 | 20810 ft | 390 kts | 133° |
| 2026-05-05 15:42 | 50.58146 | 5.12576 | 21392 ft | 393 kts | 133° |
| 2026-05-05 15:42 | 50.56372 | 5.15865 | 21961 ft | 396 kts | 132° |
| 2026-05-05 15:42 | 50.54613 | 5.19227 | 22515 ft | 400 kts | 131° |
| 2026-05-05 15:42 | 50.52873 | 5.22649 | 23068 ft | 403 kts | 130° |
| 2026-05-05 15:43 | 50.51137 | 5.26127 | 23567 ft | 406 kts | 130° |
| 2026-05-05 15:43 | 50.49396 | 5.29638 | 24010 ft | 408 kts | 130° |
| 2026-05-05 15:43 | 50.47644 | 5.33166 | 24453 ft | 410 kts | 130° |
| 2026-05-05 15:43 | 50.45906 | 5.36654 | 24876 ft | 412 kts | 130° |
| 2026-05-05 15:44 | 50.44133 | 5.40196 | 25300 ft | 414 kts | 130° |
| 2026-05-05 15:44 | 50.42348 | 5.43746 | 25721 ft | 416 kts | 130° |
| 2026-05-05 15:44 | 50.40551 | 5.47309 | 26132 ft | 418 kts | 130° |
| 2026-05-05 15:44 | 50.38745 | 5.50881 | 26526 ft | 419 kts | 130° |
| 2026-05-05 15:45 | 50.36928 | 5.54473 | 26930 ft | 421 kts | 130° |
| 2026-05-05 15:45 | 50.35102 | 5.58079 | 27320 ft | 423 kts | 130° |
| 2026-05-05 15:45 | 50.33269 | 5.61696 | 27703 ft | 425 kts | 130° |
| 2026-05-05 15:45 | 50.31426 | 5.65322 | 28072 ft | 427 kts | 130° |
| 2026-05-05 15:46 | 50.29598 | 5.68914 | 28420 ft | 428 kts | 130° |
| 2026-05-05 15:46 | 50.27741 | 5.72558 | 28751 ft | 430 kts | 129° |
| 2026-05-05 15:46 | 50.26063 | 5.76460 | 29091 ft | 434 kts | 121° |
| 2026-05-05 15:46 | 50.24797 | 5.80745 | 29397 ft | 437 kts | 111° |
| 2026-05-05 15:47 | 50.23941 | 5.85320 | 29687 ft | 441 kts | 107° |
| 2026-05-05 15:47 | 50.23428 | 5.88396 | 29886 ft | 442 kts | 107° |
| 2026-05-05 15:47 | 50.22386 | 5.94600 | 30210 ft | 443 kts | 107° |
| 2026-05-05 15:47 | 50.21597 | 5.99265 | 30440 ft | 444 kts | 107° |
| 2026-05-05 15:48 | 50.20803 | 6.03924 | 30742 ft | 443 kts | 107° |
| 2026-05-05 15:48 | 50.20009 | 6.08566 | 31057 ft | 442 kts | 108° |
| 2026-05-05 15:48 | 50.19228 | 6.13117 | 31393 ft | 440 kts | 108° |
| 2026-05-05 15:48 | 50.18601 | 6.17796 | 31716 ft | 441 kts | 100° |
| 2026-05-05 15:49 | 50.18443 | 6.22586 | 32036 ft | 445 kts | 91° |
| 2026-05-05 15:49 | 50.18707 | 6.27410 | 32354 ft | 446 kts | 88° |
| 2026-05-05 15:49 | 50.19025 | 6.32220 | 32682 ft | 445 kts | 88° |
| 2026-05-05 15:49 | 50.19332 | 6.37011 | 33029 ft | 444 kts | 89° |
| 2026-05-05 15:50 | 50.19631 | 6.41796 | 33383 ft | 442 kts | 89° |
| 2026-05-05 15:50 | 50.19921 | 6.46565 | 33736 ft | 441 kts | 89° |
| 2026-05-05 15:50 | 50.20203 | 6.51320 | 34031 ft | 440 kts | 89° |
| 2026-05-05 15:50 | 50.20479 | 6.56016 | 34276 ft | 440 kts | 89° |
| 2026-05-05 15:51 | 50.20758 | 6.60776 | 34506 ft | 441 kts | 89° |
| 2026-05-05 15:51 | 50.21042 | 6.65558 | 34744 ft | 442 kts | 89° |
| 2026-05-05 15:51 | 50.21331 | 6.70345 | 34973 ft | 443 kts | 89° |
| 2026-05-05 15:51 | 50.21622 | 6.75140 | 35205 ft | 444 kts | 89° |
| 2026-05-05 15:52 | 50.21911 | 6.79949 | 35431 ft | 445 kts | 89° |
| 2026-05-05 15:52 | 50.22126 | 6.84759 | 35650 ft | 444 kts | 94° |
| 2026-05-05 15:52 | 50.21960 | 6.89561 | 35864 ft | 442 kts | 98° |
| 2026-05-05 15:52 | 50.21708 | 6.94282 | 36066 ft | 443 kts | 98° |
| 2026-05-05 15:53 | 50.21455 | 6.99089 | 36250 ft | 444 kts | 98° |
| 2026-05-05 15:53 | 50.21204 | 7.03892 | 36426 ft | 445 kts | 98° |
| 2026-05-05 15:53 | 50.20951 | 7.08723 | 36602 ft | 446 kts | 98° |
| 2026-05-05 15:53 | 50.20694 | 7.13552 | 36789 ft | 447 kts | 98° |
| 2026-05-05 15:54 | 50.20432 | 7.18391 | 36956 ft | 448 kts | 98° |
| 2026-05-05 15:54 | 50.20167 | 7.23236 | 37116 ft | 449 kts | 98° |
| 2026-05-05 15:54 | 50.19904 | 7.28095 | 37299 ft | 450 kts | 98° |
| 2026-05-05 15:54 | 50.19517 | 7.32926 | 37455 ft | 447 kts | 105° |
| 2026-05-05 15:55 | 50.18705 | 7.37595 | 37615 ft | 445 kts | 111° |
| 2026-05-05 15:55 | 50.17789 | 7.42138 | 37772 ft | 446 kts | 111° |
| 2026-05-05 15:55 | 50.16859 | 7.46757 | 37902 ft | 447 kts | 111° |
| 2026-05-05 15:55 | 50.15927 | 7.51388 | 38064 ft | 448 kts | 111° |
| 2026-05-05 15:56 | 50.14993 | 7.56019 | 38253 ft | 448 kts | 111° |
| 2026-05-05 15:56 | 50.14058 | 7.60653 | 38428 ft | 449 kts | 111° |
| 2026-05-05 15:56 | 50.13118 | 7.65304 | 38551 ft | 449 kts | 111° |
| 2026-05-05 15:56 | 50.12177 | 7.69945 | 38658 ft | 450 kts | 111° |
| 2026-05-05 15:57 | 50.11231 | 7.74590 | 38788 ft | 450 kts | 111° |
| 2026-05-05 15:57 | 50.09337 | 7.83843 | 38823 ft | 452 kts | 111° |
| 2026-05-05 15:58 | 50.07420 | 7.93148 | 38846 ft | 452 kts | 111° |
| 2026-05-05 15:58 | 50.05495 | 8.02475 | 38840 ft | 452 kts | 111° |
| 2026-05-05 15:59 | 50.03566 | 8.11783 | 38847 ft | 452 kts | 111° |
| 2026-05-05 15:59 | 50.01629 | 8.21095 | 38857 ft | 453 kts | 111° |
| 2026-05-05 16:00 | 49.99697 | 8.30345 | 38862 ft | 453 kts | 111° |
| 2026-05-05 16:00 | 49.97740 | 8.39645 | 38865 ft | 453 kts | 111° |
| 2026-05-05 16:01 | 49.95769 | 8.48945 | 38844 ft | 453 kts | 111° |
| 2026-05-05 16:01 | 49.93131 | 8.57734 | 38846 ft | 448 kts | 123° |
| 2026-05-05 16:02 | 49.90064 | 8.66062 | 38845 ft | 448 kts | 123° |
| 2026-05-05 16:02 | 49.86961 | 8.74434 | 38845 ft | 448 kts | 123° |
| 2026-05-05 16:03 | 49.83855 | 8.82805 | 38848 ft | 448 kts | 123° |
| 2026-05-05 16:03 | 49.80746 | 8.91159 | 38846 ft | 448 kts | 123° |
| 2026-05-05 16:04 | 49.77650 | 8.99452 | 38847 ft | 448 kts | 123° |
| 2026-05-05 16:04 | 49.74525 | 9.07793 | 38852 ft | 448 kts | 123° |
| 2026-05-05 16:05 | 49.71402 | 9.16127 | 38849 ft | 448 kts | 123° |
| 2026-05-05 16:05 | 49.68260 | 9.24453 | 38853 ft | 448 kts | 124° |
| 2026-05-05 16:06 | 49.65119 | 9.32756 | 38849 ft | 448 kts | 124° |
| 2026-05-05 16:06 | 49.61943 | 9.40961 | 38852 ft | 446 kts | 129° |
| 2026-05-05 16:07 | 49.57975 | 9.48232 | 38852 ft | 443 kts | 135° |
| 2026-05-05 16:07 | 49.53902 | 9.55364 | 38846 ft | 443 kts | 135° |
| 2026-05-05 16:08 | 49.49826 | 9.62494 | 38854 ft | 444 kts | 135° |
| 2026-05-05 16:08 | 49.45749 | 9.69617 | 38847 ft | 444 kts | 135° |
| 2026-05-05 16:09 | 49.41686 | 9.76690 | 38851 ft | 444 kts | 135° |
| 2026-05-05 16:09 | 49.37588 | 9.83807 | 38661 ft | 445 kts | 135° |
| 2026-05-05 16:09 | 49.35543 | 9.87356 | 38422 ft | 444 kts | 135° |
| 2026-05-05 16:10 | 49.33484 | 9.90911 | 38135 ft | 447 kts | 135° |
| 2026-05-05 16:10 | 49.31419 | 9.94463 | 37632 ft | 446 kts | 135° |
| 2026-05-05 16:10 | 49.29359 | 9.98002 | 36990 ft | 442 kts | 135° |
| 2026-05-05 16:10 | 49.27329 | 10.01489 | 36553 ft | 434 kts | 135° |
| 2026-05-05 16:11 | 49.25358 | 10.04876 | 36015 ft | 430 kts | 135° |
| 2026-05-05 16:11 | 49.19340 | 10.15156 | 33068 ft | 440 kts | 135° |
| 2026-05-05 16:12 | 49.17292 | 10.18653 | 31883 ft | 443 kts | 134° |
| 2026-05-05 16:12 | 49.13148 | 10.25702 | 29623 ft | 447 kts | 134° |
| 2026-05-05 16:13 | 49.06930 | 10.35759 | 27588 ft | 425 kts | 136° |
| 2026-05-05 16:13 | 49.04893 | 10.38980 | 26927 ft | 420 kts | 136° |
| 2026-05-05 16:13 | 49.02877 | 10.42170 | 26269 ft | 415 kts | 136° |
| 2026-05-05 16:14 | 48.98923 | 10.48468 | 24978 ft | 408 kts | 136° |
| 2026-05-05 16:14 | 48.95036 | 10.54672 | 23720 ft | 402 kts | 136° |
| 2026-05-05 16:15 | 48.91229 | 10.60745 | 22465 ft | 396 kts | 136° |
| 2026-05-05 16:15 | 48.87464 | 10.66722 | 21386 ft | 387 kts | 136° |
| 2026-05-05 16:16 | 48.83771 | 10.72566 | 20363 ft | 380 kts | 136° |
| 2026-05-05 16:16 | 48.80147 | 10.78283 | 19374 ft | 372 kts | 136° |
| 2026-05-05 16:17 | 48.76571 | 10.83909 | 18380 ft | 370 kts | 136° |
| 2026-05-05 16:17 | 48.74808 | 10.86677 | 17851 ft | 370 kts | 137° |
| 2026-05-05 16:18 | 48.71300 | 10.92169 | 17249 ft | 356 kts | 137° |
| 2026-05-05 16:18 | 48.69585 | 10.94847 | 16818 ft | 352 kts | 137° |
| 2026-05-05 16:18 | 48.66232 | 11.00068 | 16171 ft | 339 kts | 137° |
| 2026-05-05 16:19 | 48.65146 | 11.01755 | 15916 ft | 336 kts | 137° |
| 2026-05-05 16:19 | 48.62973 | 11.05131 | 15357 ft | 333 kts | 137° |
| 2026-05-05 16:19 | 48.59776 | 11.10092 | 14697 ft | 329 kts | 137° |
| 2026-05-05 16:20 | 48.56459 | 11.14450 | 14443 ft | 306 kts | 149° |
| 2026-05-05 16:20 | 48.52965 | 11.17986 | 13925 ft | 300 kts | 149° |
| 2026-05-05 16:21 | 48.50218 | 11.21159 | 13370 ft | 300 kts | 141° |
| 2026-05-05 16:22 | 48.45097 | 11.28080 | 12171 ft | 295 kts | 141° |
| 2026-05-05 16:22 | 48.42468 | 11.32761 | 11462 ft | 298 kts | 118° |
| 2026-05-05 16:23 | 48.41762 | 11.37829 | 10859 ft | 303 kts | 90° |
| 2026-05-05 16:23 | 48.41992 | 11.40982 | 10504 ft | 303 kts | 85° |
| 2026-05-05 16:23 | 48.42507 | 11.47240 | 9825 ft | 300 kts | 85° |
| 2026-05-05 16:24 | 48.42833 | 11.51347 | 9351 ft | 297 kts | 85° |
| 2026-05-05 16:24 | 48.43074 | 11.54423 | 8982 ft | 295 kts | 85° |
| 2026-05-05 16:24 | 48.43471 | 11.59493 | 8356 ft | 291 kts | 85° |
| 2026-05-05 16:25 | 48.43708 | 11.62512 | 7991 ft | 289 kts | 85° |
| 2026-05-05 16:25 | 48.44171 | 11.68488 | 7248 ft | 286 kts | 85° |
| 2026-05-05 16:25 | 48.44401 | 11.71447 | 6896 ft | 283 kts | 84° |
| 2026-05-05 16:26 | 48.44847 | 11.77158 | 6840 ft | 264 kts | 84° |
| 2026-05-05 16:26 | 48.45266 | 11.82604 | 6812 ft | 261 kts | 85° |
| 2026-05-05 16:27 | 48.45471 | 11.85322 | 6804 ft | 261 kts | 85° |
| 2026-05-05 16:27 | 48.45672 | 11.88003 | 6805 ft | 261 kts | 84° |
| 2026-05-05 16:27 | 48.45877 | 11.90725 | 6804 ft | 262 kts | 85° |
| 2026-05-05 16:27 | 48.46082 | 11.93447 | 6802 ft | 262 kts | 85° |
| 2026-05-05 16:28 | 48.46288 | 11.96173 | 6802 ft | 261 kts | 85° |
| 2026-05-05 16:28 | 48.46495 | 11.98897 | 6801 ft | 262 kts | 85° |
| 2026-05-05 16:28 | 48.46701 | 12.01624 | 6796 ft | 262 kts | 85° |
| 2026-05-05 16:28 | 48.46903 | 12.04350 | 6796 ft | 260 kts | 84° |
| 2026-05-05 16:29 | 48.47099 | 12.06979 | 6781 ft | 245 kts | 85° |
| 2026-05-05 16:29 | 48.47285 | 12.09460 | 6576 ft | 240 kts | 85° |
| 2026-05-05 16:29 | 48.47468 | 12.11943 | 6288 ft | 237 kts | 85° |
| 2026-05-05 16:29 | 48.47649 | 12.14411 | 6006 ft | 235 kts | 85° |
| 2026-05-05 16:30 | 48.47826 | 12.16847 | 5941 ft | 229 kts | 84° |
| 2026-05-05 16:30 | 48.47938 | 12.19174 | 5941 ft | 218 kts | 97° |
| 2026-05-05 16:30 | 48.47387 | 12.21214 | 5943 ft | 211 kts | 134° |
| 2026-05-05 16:30 | 48.46177 | 12.22364 | 5946 ft | 207 kts | 166° |
| 2026-05-05 16:31 | 48.44761 | 12.22772 | 5948 ft | 208 kts | 175° |
| 2026-05-05 16:31 | 48.43360 | 12.22701 | 5794 ft | 203 kts | 200° |
| 2026-05-05 16:31 | 48.42132 | 12.21693 | 5511 ft | 202 kts | 220° |
| 2026-05-05 16:31 | 48.41171 | 12.20147 | 5221 ft | 203 kts | 232° |
| 2026-05-05 16:32 | 48.40324 | 12.18446 | 5013 ft | 203 kts | 234° |
| 2026-05-05 16:32 | 48.39510 | 12.16712 | 4948 ft | 203 kts | 242° |
| 2026-05-05 16:32 | 48.39111 | 12.14697 | 4962 ft | 203 kts | 263° |
| 2026-05-05 16:32 | 48.38958 | 12.12580 | 4967 ft | 204 kts | 264° |
| 2026-05-05 16:33 | 48.38809 | 12.10500 | 4945 ft | 198 kts | 264° |
| 2026-05-05 16:33 | 48.38660 | 12.08457 | 4808 ft | 193 kts | 264° |
| 2026-05-05 16:33 | 48.38516 | 12.06494 | 4560 ft | 190 kts | 264° |
| 2026-05-05 16:33 | 48.38371 | 12.04541 | 4303 ft | 186 kts | 265° |
| 2026-05-05 16:34 | 48.38230 | 12.02648 | 4060 ft | 177 kts | 265° |
| 2026-05-05 16:34 | 48.38098 | 12.00866 | 3843 ft | 166 kts | 264° |
| 2026-05-05 16:34 | 48.37974 | 11.99219 | 3648 ft | 151 kts | 265° |
| 2026-05-05 16:34 | 48.37862 | 11.97713 | 3462 ft | 141 kts | 265° |
| 2026-05-05 16:35 | 48.37755 | 11.96276 | 3277 ft | 138 kts | 266° |
| 2026-05-05 16:35 | 48.37649 | 11.94860 | 3097 ft | 135 kts | 265° |
| 2026-05-05 16:35 | 48.37544 | 11.93459 | 2956 ft | 134 kts | 265° |
| 2026-05-05 16:35 | 48.37457 | 11.92078 | 2826 ft | 136 kts | 268° |
| 2026-05-05 16:36 | 48.37365 | 11.90672 | 2636 ft | 135 kts | 263° |
| 2026-05-05 16:36 | 48.37247 | 11.89264 | 2430 ft | 134 kts | 266° |
| 2026-05-05 16:36 | 48.37135 | 11.87865 | 2265 ft | 135 kts | 264° |
| 2026-05-05 16:36 | 48.37028 | 11.86464 | 2083 ft | 135 kts | 265° |
| 2026-05-05 16:37 | 48.36920 | 11.85052 | 1876 ft | 136 kts | 262° |
| 2026-05-05 16:37 | 48.36802 | 11.83632 | 1714 ft | 138 kts | 263° |
| 2026-05-05 16:37 | 48.36698 | 11.82189 | 1536 ft | 139 kts | 262° |
| 2026-05-05 16:37 | 48.36587 | 11.80824 | 1485 ft | 113 kts | 264° |
| 2026-05-05 16:38 | 48.36517 | 11.79891 | 1485 ft | 75 kts | 263° |
| 2026-05-05 16:38 | 48.36468 | 11.79276 | 1485 ft | 41 kts | 264° |
| 2026-05-05 16:38 | 48.36429 | 11.78982 | 1476 ft | 25 kts | 243° |
| 2026-05-05 16:38 | 48.36331 | 11.78760 | 1481 ft | 26 kts | 232° |
| 2026-05-05 16:39 | 48.36229 | 11.78561 | 1485 ft | 19 kts | 233° |
| 2026-05-05 16:39 | 48.36130 | 11.78477 | 1482 ft | 18 kts | 175° |
| 2026-05-05 16:39 | 48.36034 | 11.78531 | 1483 ft | 14 kts | 108° |
| 2026-05-05 16:39 | 48.36045 | 11.78693 | 1485 ft | 17 kts | 84° |
| 2026-05-05 16:40 | 48.36058 | 11.78879 | 1485 ft | 19 kts | 83° |
| 2026-05-05 16:40 | 48.36075 | 11.79088 | 1485 ft | 21 kts | 83° |
| 2026-05-05 16:40 | 48.36085 | 11.79275 | 1485 ft | 14 kts | 99° |
| 2026-05-05 16:40 | 48.36005 | 11.79333 | 1480 ft | 15 kts | 174° |
| 2026-05-05 16:41 | 48.35906 | 11.79384 | 1485 ft | 16 kts | 130° |
| 2026-05-05 16:41 | 48.35805 | 11.79462 | 1484 ft | 17 kts | 175° |
| 2026-05-05 16:41 | 48.35723 | 11.79518 | 1481 ft | 13 kts | 110° |
| 2026-05-05 16:41 | 48.35728 | 11.79652 | 1485 ft | 7 kts | 83° |
| 2026-05-05 16:42 | 48.35730 | 11.79679 | 1485 ft | 0 kts | 83° |
| 2026-05-05 16:42 | 48.35730 | 11.79681 | 1485 ft | 2 kts | 83° |
| 2026-05-05 16:42 | 48.35731 | 11.79697 | 1481 ft | 0 kts | 83° |